sensor_id;sensor_type;location;lat;lon;timestamp;P1;durP1;ratioP1;P2;durP2;ratioP2
20334;SDS011;10325;51.468;5.804;2023-06-14T18:07:29;22.70;;;6.20;;
20334;SDS011;10325;51.468;5.804;2023-06-14T18:37:46;9.20;;;4.35;;
20334;SDS011;10325;51.468;5.804;2023-06-14T18:40:18;7.47;;;4.53;;
20334;SDS011;10325;51.468;5.804;2023-06-14T18:42:48;6.83;;;4.20;;
20334;SDS011;10325;51.468;5.804;2023-06-14T18:45:22;6.63;;;3.90;;
20334;SDS011;10325;51.468;5.804;2023-06-14T18:47:54;8.77;;;3.53;;
20334;SDS011;10325;51.468;5.804;2023-06-14T18:50:25;5.60;;;3.83;;
20334;SDS011;10325;51.468;5.804;2023-06-14T18:52:52;7.30;;;3.60;;
20334;SDS011;10325;51.468;5.804;2023-06-14T18:55:24;6.33;;;3.47;;
20334;SDS011;10325;51.468;5.804;2023-06-14T18:57:53;7.33;;;3.77;;
20334;SDS011;10325;51.468;5.804;2023-06-14T19:00:23;8.20;;;3.20;;
20334;SDS011;10325;51.468;5.804;2023-06-14T19:02:54;5.03;;;3.03;;
20334;SDS011;10325;51.468;5.804;2023-06-14T19:05:24;4.33;;;3.00;;
20334;SDS011;10325;51.468;5.804;2023-06-14T19:07:53;5.90;;;3.40;;
20334;SDS011;10325;51.468;5.804;2023-06-14T19:10:38;4.93;;;3.27;;
20334;SDS011;10325;51.468;5.804;2023-06-14T19:13:10;4.93;;;3.70;;
20334;SDS011;10325;51.468;5.804;2023-06-14T19:15:40;4.47;;;3.10;;
20334;SDS011;10325;51.468;5.804;2023-06-14T19:18:12;6.77;;;3.17;;
20334;SDS011;10325;51.468;5.804;2023-06-14T19:20:42;4.47;;;2.87;;
20334;SDS011;10325;51.468;5.804;2023-06-14T19:23:15;4.23;;;2.63;;
20334;SDS011;10325;51.468;5.804;2023-06-14T19:25:45;7.67;;;2.73;;
20334;SDS011;10325;51.468;5.804;2023-06-14T19:28:16;7.00;;;2.70;;
20334;SDS011;10325;51.468;5.804;2023-06-14T19:30:44;4.87;;;2.93;;
20334;SDS011;10325;51.468;5.804;2023-06-14T19:33:14;5.53;;;2.80;;
20334;SDS011;10325;51.468;5.804;2023-06-14T19:35:46;5.00;;;2.97;;
20334;SDS011;10325;51.468;5.804;2023-06-14T19:38:17;4.63;;;2.97;;
20334;SDS011;10325;51.468;5.804;2023-06-14T19:40:49;3.70;;;2.90;;
20334;SDS011;10325;51.468;5.804;2023-06-14T19:43:19;4.00;;;3.10;;
20334;SDS011;10325;51.468;5.804;2023-06-14T19:45:49;7.63;;;2.40;;
20334;SDS011;10325;51.468;5.804;2023-06-14T19:48:19;3.83;;;2.80;;
20334;SDS011;10325;51.468;5.804;2023-06-14T19:50:50;2.93;;;2.63;;
20334;SDS011;10325;51.468;5.804;2023-06-14T19:53:18;3.23;;;2.77;;
20334;SDS011;10325;51.468;5.804;2023-06-14T19:55:50;3.10;;;2.57;;
20334;SDS011;10325;51.468;5.804;2023-06-14T19:58:38;3.33;;;2.63;;
20334;SDS011;10325;51.468;5.804;2023-06-14T20:01:07;3.30;;;2.80;;
20334;SDS011;10325;51.468;5.804;2023-06-14T20:03:34;3.33;;;2.30;;
20334;SDS011;10325;51.468;5.804;2023-06-14T20:06:06;2.63;;;2.43;;
20334;SDS011;10325;51.468;5.804;2023-06-14T20:08:38;3.50;;;2.83;;
20334;SDS011;10325;51.468;5.804;2023-06-14T20:11:11;3.37;;;2.90;;
20334;SDS011;10325;51.468;5.804;2023-06-14T20:13:53;3.67;;;2.30;;
20334;SDS011;10325;51.468;5.804;2023-06-14T20:16:34;3.27;;;2.33;;
20334;SDS011;10325;51.468;5.804;2023-06-14T20:19:02;2.33;;;2.13;;
20334;SDS011;10325;51.468;5.804;2023-06-14T20:21:32;2.60;;;2.40;;
20334;SDS011;10325;51.468;5.804;2023-06-14T20:24:06;2.57;;;2.37;;
20334;SDS011;10325;51.468;5.804;2023-06-14T20:26:38;2.63;;;2.10;;
20334;SDS011;10325;51.468;5.804;2023-06-14T20:29:08;2.07;;;1.93;;
20334;SDS011;10325;51.468;5.804;2023-06-14T20:31:42;3.17;;;2.13;;
20334;SDS011;10325;51.468;5.804;2023-06-14T20:34:25;2.87;;;2.00;;
20334;SDS011;10325;51.468;5.804;2023-06-14T20:37:00;3.73;;;2.40;;
20334;SDS011;10325;51.468;5.804;2023-06-14T20:39:29;2.80;;;1.93;;
20334;SDS011;10325;51.468;5.804;2023-06-14T20:42:03;2.80;;;2.20;;
20334;SDS011;10325;51.468;5.804;2023-06-14T20:44:52;4.90;;;2.30;;
20334;SDS011;10325;51.468;5.804;2023-06-14T20:47:25;2.40;;;2.20;;
20334;SDS011;10325;51.468;5.804;2023-06-14T20:49:56;5.23;;;2.47;;
20334;SDS011;10325;51.468;5.804;2023-06-14T20:52:27;5.03;;;2.60;;
20334;SDS011;10325;51.468;5.804;2023-06-14T20:54:56;3.37;;;2.57;;
20334;SDS011;10325;51.468;5.804;2023-06-14T20:57:26;3.13;;;2.40;;
20334;SDS011;10325;51.468;5.804;2023-06-14T20:59:57;5.87;;;2.97;;
20334;SDS011;10325;51.468;5.804;2023-06-14T21:02:29;4.80;;;2.90;;
20334;SDS011;10325;51.468;5.804;2023-06-14T21:04:59;7.60;;;2.70;;
20334;SDS011;10325;51.468;5.804;2023-06-14T21:07:29;5.03;;;2.77;;
20334;SDS011;10325;51.468;5.804;2023-06-14T21:10:01;9.10;;;2.83;;
20334;SDS011;10325;51.468;5.804;2023-06-14T21:12:33;4.80;;;2.70;;
20334;SDS011;10325;51.468;5.804;2023-06-14T21:15:02;6.03;;;3.30;;
20334;SDS011;10325;51.468;5.804;2023-06-14T21:17:33;8.00;;;3.00;;
20334;SDS011;10325;51.468;5.804;2023-06-14T21:20:05;4.70;;;2.90;;
20334;SDS011;10325;51.468;5.804;2023-06-14T21:22:37;3.50;;;2.73;;
20334;SDS011;10325;51.468;5.804;2023-06-14T21:25:07;3.67;;;2.57;;
20334;SDS011;10325;51.468;5.804;2023-06-14T21:27:38;4.07;;;2.57;;
20334;SDS011;10325;51.468;5.804;2023-06-14T21:30:10;6.47;;;2.67;;
20334;SDS011;10325;51.468;5.804;2023-06-14T21:32:44;3.10;;;2.50;;
20334;SDS011;10325;51.468;5.804;2023-06-14T21:35:16;4.10;;;2.93;;
20334;SDS011;10325;51.468;5.804;2023-06-14T21:37:50;3.57;;;2.47;;
20334;SDS011;10325;51.468;5.804;2023-06-14T21:40:33;4.27;;;2.50;;
20334;SDS011;10325;51.468;5.804;2023-06-14T21:43:02;9.53;;;3.47;;
20334;SDS011;10325;51.468;5.804;2023-06-14T21:45:33;3.63;;;2.80;;
20334;SDS011;10325;51.468;5.804;2023-06-14T21:48:03;4.73;;;2.70;;
20334;SDS011;10325;51.468;5.804;2023-06-14T21:50:35;4.03;;;2.87;;
20334;SDS011;10325;51.468;5.804;2023-06-14T21:53:03;3.27;;;2.50;;
20334;SDS011;10325;51.468;5.804;2023-06-14T21:55:32;4.93;;;3.13;;
20334;SDS011;10325;51.468;5.804;2023-06-14T21:58:02;2.97;;;2.40;;
20334;SDS011;10325;51.468;5.804;2023-06-14T22:00:35;4.50;;;3.03;;
20334;SDS011;10325;51.468;5.804;2023-06-14T22:03:04;2.77;;;2.43;;
20334;SDS011;10325;51.468;5.804;2023-06-14T22:05:36;4.77;;;2.77;;
20334;SDS011;10325;51.468;5.804;2023-06-14T22:08:06;9.87;;;3.23;;
20334;SDS011;10325;51.468;5.804;2023-06-14T22:10:37;4.10;;;3.07;;
20334;SDS011;10325;51.468;5.804;2023-06-14T22:13:09;3.57;;;2.80;;
20334;SDS011;10325;51.468;5.804;2023-06-14T22:15:41;2.40;;;2.20;;
20334;SDS011;10325;51.468;5.804;2023-06-14T22:18:15;5.43;;;2.70;;
20334;SDS011;10325;51.468;5.804;2023-06-14T22:20:50;3.37;;;2.43;;
20334;SDS011;10325;51.468;5.804;2023-06-14T22:23:21;3.27;;;2.50;;
20334;SDS011;10325;51.468;5.804;2023-06-14T22:25:56;2.70;;;2.50;;
20334;SDS011;10325;51.468;5.804;2023-06-14T22:28:29;2.43;;;2.23;;
20334;SDS011;10325;51.468;5.804;2023-06-14T22:31:08;2.50;;;2.30;;
20334;SDS011;10325;51.468;5.804;2023-06-14T22:33:51;2.70;;;2.50;;
20334;SDS011;10325;51.468;5.804;2023-06-14T22:36:23;3.47;;;2.50;;
20334;SDS011;10325;51.468;5.804;2023-06-14T22:38:55;2.90;;;2.67;;
20334;SDS011;10325;51.468;5.804;2023-06-14T22:41:26;3.50;;;2.40;;
20334;SDS011;10325;51.468;5.804;2023-06-14T22:43:58;3.30;;;2.40;;
20334;SDS011;10325;51.468;5.804;2023-06-14T22:46:27;4.33;;;2.77;;
20334;SDS011;10325;51.468;5.804;2023-06-14T22:49:12;2.27;;;2.07;;
20334;SDS011;10325;51.468;5.804;2023-06-14T22:51:43;2.30;;;2.10;;
20334;SDS011;10325;51.468;5.804;2023-06-14T22:54:13;2.60;;;2.40;;
20334;SDS011;10325;51.468;5.804;2023-06-14T22:56:45;2.70;;;2.37;;
20334;SDS011;10325;51.468;5.804;2023-06-14T22:59:20;4.57;;;2.40;;
20334;SDS011;10325;51.468;5.804;2023-06-14T23:01:51;3.33;;;2.60;;
20334;SDS011;10325;51.468;5.804;2023-06-14T23:04:21;3.63;;;2.50;;
20334;SDS011;10325;51.468;5.804;2023-06-14T23:06:49;4.10;;;2.90;;
20334;SDS011;10325;51.468;5.804;2023-06-14T23:09:20;2.73;;;2.47;;
20334;SDS011;10325;51.468;5.804;2023-06-14T23:11:51;3.63;;;2.30;;
20334;SDS011;10325;51.468;5.804;2023-06-14T23:14:20;6.00;;;2.77;;
20334;SDS011;10325;51.468;5.804;2023-06-14T23:16:53;3.00;;;2.70;;
20334;SDS011;10325;51.468;5.804;2023-06-14T23:19:26;2.83;;;2.60;;
20334;SDS011;10325;51.468;5.804;2023-06-14T23:21:59;5.73;;;2.60;;
20334;SDS011;10325;51.468;5.804;2023-06-14T23:24:28;4.03;;;2.50;;
20334;SDS011;10325;51.468;5.804;2023-06-14T23:27:00;2.53;;;2.33;;
20334;SDS011;10325;51.468;5.804;2023-06-14T23:29:34;2.63;;;2.43;;
20334;SDS011;10325;51.468;5.804;2023-06-14T23:32:08;2.70;;;2.50;;
20334;SDS011;10325;51.468;5.804;2023-06-14T23:34:40;2.50;;;2.30;;
20334;SDS011;10325;51.468;5.804;2023-06-14T23:37:15;3.47;;;2.30;;
20334;SDS011;10325;51.468;5.804;2023-06-14T23:39:48;2.93;;;2.43;;
20334;SDS011;10325;51.468;5.804;2023-06-14T23:42:18;2.80;;;2.60;;
20334;SDS011;10325;51.468;5.804;2023-06-14T23:44:48;2.77;;;2.57;;
20334;SDS011;10325;51.468;5.804;2023-06-14T23:47:18;2.60;;;2.40;;
20334;SDS011;10325;51.468;5.804;2023-06-14T23:49:48;2.93;;;2.47;;
20334;SDS011;10325;51.468;5.804;2023-06-14T23:52:20;2.63;;;2.43;;
20334;SDS011;10325;51.468;5.804;2023-06-14T23:54:49;3.20;;;2.50;;
20334;SDS011;10325;51.468;5.804;2023-06-14T23:57:21;2.87;;;2.67;;
20334;SDS011;10325;51.468;5.804;2023-06-14T23:59:56;2.40;;;2.20;;
